Time;durP1;ratioP1;P1;durP2;ratioP2;P2;SDS_P1;SDS_P2;PMS_P1;PMS_P2;Temp;Humidity;BMP_temperature;BMP_pressure;BME280_temperature;BME280_humidity;BME280_pressure;Samples;Min_cycle;Max_cycle;Signal;HPM_P1;HPM_P2
2022/09/04 00:02:25;;;;;;;9.57;2.53;;;18.50;73.20;;;;;;6164427;23;20002;-90
2022/09/04 00:05:11;;;;;;;3.67;2.22;;;18.60;73.00;;;;;;6165608;23;20004;-90
2022/09/04 00:07:58;;;;;;;5.53;2.15;;;18.50;73.00;;;;;;6192344;23;20812;-90
2022/09/04 00:10:52;;;;;;;3.42;1.95;;;18.50;73.40;;;;;;6164918;23;20060;-90
2022/09/04 00:13:35;;;;;;;6.60;2.10;;;18.50;73.30;;;;;;6166145;23;20009;-91
2022/09/04 00:16:23;;;;;;;4.70;2.20;;;18.30;73.80;;;;;;6163997;23;20011;-89
2022/09/04 00:19:08;;;;;;;5.80;2.15;;;18.40;73.80;;;;;;6192664;23;20762;-91
2022/09/04 00:21:55;;;;;;;5.88;2.58;;;18.40;73.80;;;;;;6165030;23;20009;-91
2022/09/04 00:24:35;;;;;;;4.00;2.00;;;18.30;74.30;;;;;;6167745;23;20311;-90
2022/09/04 00:27:18;;;;;;;7.70;2.15;;;18.30;74.60;;;;;;6163948;23;20028;-89
2022/09/04 00:30:00;;;;;;;9.35;2.47;;;18.30;74.90;;;;;;6167933;23;20005;-89
2022/09/04 00:32:37;;;;;;;6.45;2.05;;;18.40;74.80;;;;;;6164689;23;20015;-90
2022/09/04 00:35:30;;;;;;;3.83;1.88;;;18.30;75.10;;;;;;6166881;23;20092;-89
2022/09/04 00:37:59;;;;;;;7.20;2.42;;;18.30;75.40;;;;;;6164600;23;20001;-89
2022/09/04 00:40:38;;;;;;;4.57;2.13;;;18.30;75.60;;;;;;6167773;23;20433;-90
2022/09/04 00:43:43;;;;;;;5.35;2.03;;;18.30;75.50;;;;;;6164158;23;20240;-88
2022/09/04 00:46:31;;;;;;;5.60;2.20;;;18.30;75.80;;;;;;6167709;23;20001;-90
2022/09/04 00:49:18;;;;;;;5.38;2.05;;;18.40;75.70;;;;;;6164009;23;20012;-90
2022/09/04 00:51:59;;;;;;;8.65;2.53;;;18.30;76.10;;;;;;6167870;23;20016;-90
2022/09/04 00:54:34;;;;;;;6.35;2.00;;;18.30;76.10;;;;;;6163039;23;20024;-88
2022/09/04 00:57:21;;;;;;;5.38;2.03;;;18.30;76.30;;;;;;6167900;23;20028;-89
2022/09/04 01:00:06;;;;;;;4.40;1.83;;;18.40;76.20;;;;;;6163621;23;20016;-90
2022/09/04 01:02:57;;;;;;;4.32;2.70;;;18.50;76.10;;;;;;6167178;23;20029;-88
2022/09/04 01:05:44;;;;;;;2.90;1.83;;;18.50;75.90;;;;;;6163695;23;20012;-89
2022/09/04 01:08:22;;;;;;;5.75;3.00;;;18.50;76.00;;;;;;6167211;23;19997;-89
2022/09/04 01:11:00;;;;;;;2.80;2.00;;;18.60;75.90;;;;;;6163598;23;20001;-89
2022/09/04 01:13:40;;;;;;;8.27;2.38;;;18.60;75.90;;;;;;6165942;23;20024;-88
2022/09/04 01:16:28;;;;;;;6.60;2.80;;;18.50;76.00;;;;;;6163502;23;20001;-89
2022/09/04 01:19:34;;;;;;;5.93;2.50;;;18.60;76.00;;;;;;6190940;23;20088;-90
2022/09/04 01:22:20;;;;;;;6.97;2.08;;;18.50;76.10;;;;;;6168341;23;20001;-89
2022/09/04 01:25:04;;;;;;;12.05;4.10;;;18.50;75.90;;;;;;6165622;23;20422;-89
2022/09/04 01:28:03;;;;;;;3.50;2.28;;;18.50;76.20;;;;;;6189956;23;20001;-90
2022/09/04 01:30:38;;;;;;;5.72;2.35;;;18.50;76.30;;;;;;6169054;23;20009;-90
2022/09/04 01:33:28;;;;;;;3.85;2.45;;;18.40;76.40;;;;;;6164076;23;20036;-89
2022/09/04 01:36:04;;;;;;;6.50;2.40;;;18.40;76.50;;;;;;6190575;23;20005;-90
2022/09/04 01:38:32;;;;;;;6.90;2.60;;;18.40;76.70;;;;;;6165750;23;20554;-89
2022/09/04 01:41:32;;;;;;;4.90;2.10;;;18.40;76.70;;;;;;6163303;23;20005;-88
2022/09/04 01:43:58;;;;;;;5.57;2.58;;;18.40;76.70;;;;;;6166578;23;20001;-89
2022/09/04 01:46:37;;;;;;;4.55;2.35;;;18.40;76.80;;;;;;6189751;23;20023;-90
2022/09/04 01:49:08;;;;;;;4.53;2.25;;;18.30;76.90;;;;;;6166860;23;20005;-89
2022/09/04 01:51:59;;;;;;;9.38;3.10;;;18.30;77.00;;;;;;6163570;23;20005;-90
2022/09/04 01:54:46;;;;;;;3.38;2.40;;;18.40;76.80;;;;;;6166836;23;20032;-89
2022/09/04 01:57:26;;;;;;;5.28;2.70;;;18.30;76.90;;;;;;6163463;23;20381;-88
2022/09/04 02:00:12;;;;;;;6.55;3.08;;;18.30;77.20;;;;;;6166273;23;20039;-90
2022/09/04 02:03:15;;;;;;;5.47;2.47;;;18.30;77.10;;;;;;6189534;23;20001;-88
2022/09/04 02:05:47;;;;;;;6.57;2.65;;;18.30;77.40;;;;;;6166809;23;20001;-88
2022/09/04 02:08:42;;;;;;;4.68;2.60;;;18.30;77.40;;;;;;6163518;23;20012;-89
2022/09/04 02:11:17;;;;;;;9.32;2.80;;;18.30;77.50;;;;;;6166455;23;20036;-89
2022/09/04 02:14:05;;;;;;;5.97;3.08;;;18.30;77.70;;;;;;6189581;23;20076;-91
2022/09/04 02:16:44;;;;;;;5.57;2.55;;;18.20;77.80;;;;;;6166770;23;20053;-90
2022/09/04 02:19:18;;;;;;;6.03;2.60;;;18.20;77.80;;;;;;6163167;23;20011;-89
2022/09/04 02:21:58;;;;;;;4.18;2.53;;;18.30;77.80;;;;;;6165336;23;20008;-89
2022/09/04 02:24:42;;;;;;;;;;;18.30;77.90;;;;;;6189971;23;20445;-88
2022/09/04 02:27:51;;;;;;;5.13;2.15;;;18.30;77.60;;;;;;6189333;23;19904;-89
2022/09/04 02:30:18;;;;;;;4.80;2.70;;;18.30;77.40;;;;;;6145688;23;20338;-90
2022/09/04 02:33:08;;;;;;;5.72;2.67;;;18.30;77.30;;;;;;6162500;23;20036;-88
2022/09/04 02:35:59;;;;;;;4.80;2.45;;;18.30;77.20;;;;;;6189324;23;20015;-89
2022/09/04 02:38:47;;;;;;;6.80;2.63;;;18.30;77.30;;;;;;6096065;23;20009;-88
2022/09/04 02:41:15;;;;;;;5.13;2.70;;;18.30;77.50;;;;;;6191384;23;20052;-89
2022/09/04 02:43:56;;;;;;;6.22;3.13;;;18.30;77.70;;;;;;6189750;23;20093;-89
2022/09/04 02:46:37;;;;;;;7.15;2.95;;;18.20;77.60;;;;;;6192062;23;20008;-89
2022/09/04 02:49:12;;;;;;;5.03;2.78;;;18.10;78.20;;;;;;6163423;23;20001;-89
2022/09/04 02:51:44;;;;;;;5.97;2.85;;;18.20;78.20;;;;;;6167308;23;20032;-90
2022/09/04 02:54:15;;;;;;;5.50;2.83;;;18.20;78.20;;;;;;6163442;23;20021;-89
2022/09/04 02:57:08;;;;;;;5.00;2.88;;;18.20;78.10;;;;;;6166517;23;20005;-90
2022/09/04 02:59:52;;;;;;;4.78;2.65;;;18.10;78.30;;;;;;6163325;23;20013;-88
2022/09/04 03:02:24;;;;;;;5.60;3.20;;;18.20;78.20;;;;;;6166851;23;20001;-89
2022/09/04 03:05:06;;;;;;;4.95;2.83;;;18.20;77.90;;;;;;6189698;23;20001;-89
2022/09/04 03:07:51;;;;;;;6.93;2.97;;;18.30;78.00;;;;;;6192549;23;19997;-91
2022/09/04 03:10:29;;;;;;;5.38;2.88;;;18.20;78.10;;;;;;6163424;23;20009;-89
2022/09/04 03:13:24;;;;;;;5.88;3.40;;;18.10;78.50;;;;;;6165217;23;20012;-89
2022/09/04 03:16:25;;;;;;;6.20;2.90;;;18.10;78.30;;;;;;6131609;23;20016;-89
2022/09/04 03:19:00;;;;;;;6.63;3.47;;;18.10;78.50;;;;;;6114228;23;20009;-87
2022/09/04 03:21:34;;;;;;;6.50;3.13;;;18.00;78.80;;;;;;6163398;23;20005;-90
2022/09/04 03:24:23;;;;;;;4.68;2.58;;;18.00;78.80;;;;;;6163558;23;20001;-89
2022/09/04 03:26:55;;;;;;;9.30;3.50;;;18.10;78.60;;;;;;6164526;23;20024;-89
2022/09/04 03:29:23;;;;;;;6.38;3.47;;;18.10;78.30;;;;;;6163609;23;20009;-89
2022/09/04 03:32:01;;;;;;;6.60;3.20;;;18.10;78.50;;;;;;6167324;23;20001;-90
2022/09/04 03:34:54;;;;;;;3.95;3.20;;;18.10;78.30;;;;;;6190183;23;20009;-89
2022/09/04 03:38:17;;;;;;;5.53;3.60;;;18.10;78.70;;;;;;6167111;23;20009;-90
2022/09/04 03:41:27;;;;;;;10.35;3.20;;;18.00;79.00;;;;;;6041056;23;20007;-90
2022/09/04 03:44:07;;;;;;;;;;;18.10;78.70;;;;;;6019183;23;20042;-88
2022/09/04 03:46:40;;;;;;;4.57;3.33;;;18.10;78.90;;;;;;6169964;23;19900;-91
2022/09/04 03:49:25;;;;;;;7.45;3.25;;;18.10;78.90;;;;;;6167194;23;20492;-89
2022/09/04 03:52:18;;;;;;;7.22;3.33;;;18.00;79.00;;;;;;6163421;23;20001;-89
2022/09/04 03:55:07;;;;;;;7.05;3.63;;;18.00;79.20;;;;;;6167148;23;20652;-92
2022/09/04 03:57:44;;;;;;;7.80;3.50;;;17.90;79.50;;;;;;6162417;23;19997;-88
2022/09/04 04:00:20;;;;;;;4.53;3.58;;;17.90;79.40;;;;;;6166802;23;20090;-89
2022/09/04 04:03:40;;;;;;;10.00;4.15;;;17.90;79.40;;;;;;6163683;23;20006;-90
2022/09/04 04:06:31;;;;;;;8.73;3.90;;;17.90;79.70;;;;;;6023524;23;20009;-92
2022/09/04 04:09:12;;;;;;;8.13;3.75;;;17.90;79.60;;;;;;6160469;23;20006;-89
2022/09/04 04:11:46;;;;;;;5.80;4.03;;;17.90;79.60;;;;;;6168977;23;20005;-92
2022/09/04 04:14:12;;;;;;;7.88;3.70;;;17.80;79.80;;;;;;6165068;23;20175;-89
2022/09/04 04:16:43;;;;;;;10.10;3.75;;;17.80;79.80;;;;;;6195592;23;20004;-91
2022/09/04 04:19:41;;;;;;;6.95;3.60;;;17.80;79.80;;;;;;6164889;23;20012;-89
2022/09/04 04:22:35;;;;;;;6.38;4.15;;;17.70;80.10;;;;;;6195500;23;20004;-89
2022/09/04 04:25:16;;;;;;;5.32;3.60;;;17.70;80.20;;;;;;6133487;23;20005;-89
2022/09/04 04:28:03;;;;;;;8.75;4.32;;;17.80;79.90;;;;;;6168317;23;20028;-91
2022/09/04 04:30:53;;;;;;;8.70;3.97;;;17.80;80.10;;;;;;6164941;23;20005;-91
2022/09/04 04:33:37;;;;;;;9.77;4.17;;;17.70;80.50;;;;;;6168917;23;20005;-89
2022/09/04 04:36:44;;;;;;;8.23;3.95;;;17.70;80.40;;;;;;6164982;23;20444;-91
2022/09/04 04:39:27;;;;;;;5.15;3.80;;;17.70;80.60;;;;;;6167087;23;20004;-91
2022/09/04 04:42:16;;;;;;;10.00;3.85;;;17.70;80.70;;;;;;6191335;23;20008;-89
2022/09/04 04:48:06;;;;;;;5.72;3.67;;;17.60;80.90;;;;;;6191266;23;20080;-88
2022/09/04 04:50:58;;;;;;;5.75;3.85;;;17.60;80.70;;;;;;6168659;23;20442;-89
2022/09/04 04:53:41;;;;;;;3.90;3.15;;;17.60;80.80;;;;;;6164317;23;20017;-91
2022/09/04 04:56:32;;;;;;;7.70;4.90;;;17.60;80.80;;;;;;6167155;23;20009;-89
2022/09/04 04:59:22;;;;;;;6.20;4.68;;;17.70;80.60;;;;;;6190407;23;20012;-89
2022/09/04 05:02:13;;;;;;;10.93;4.15;;;17.50;80.80;;;;;;6193818;23;20005;-88
2022/09/04 05:05:04;;;;;;;7.93;4.43;;;17.50;80.80;;;;;;6164200;23;20012;-91
2022/09/04 05:07:54;;;;;;;7.15;5.13;;;17.50;80.70;;;;;;6168541;23;20012;-90
2022/09/04 05:10:49;;;;;;;5.80;4.45;;;17.40;81.00;;;;;;6190909;23;20001;-89
2022/09/04 05:13:33;;;;;;;10.70;4.68;;;17.40;80.90;;;;;;6166894;23;20039;-91
2022/09/04 05:16:33;;;;;;;6.90;3.80;;;17.50;80.60;;;;;;6163990;23;20341;-90
2022/09/04 05:19:14;;;;;;;7.82;4.30;;;17.50;80.40;;;;;;6167733;23;20068;-88
2022/09/04 05:22:03;;;;;;;11.20;5.60;;;17.40;80.60;;;;;;6164730;23;20059;-89
2022/09/04 05:24:38;;;;;;;8.05;3.80;;;17.30;80.90;;;;;;6167377;23;20001;-89
2022/09/04 05:27:26;;;;;;;8.35;4.40;;;17.40;80.80;;;;;;6164368;23;20009;-91
2022/09/04 05:30:02;;;;;;;6.38;4.00;;;17.40;80.70;;;;;;6194132;23;20012;-90
2022/09/04 05:32:37;;;;;;;7.47;4.10;;;17.30;80.60;;;;;;6164762;23;20009;-90
2022/09/04 05:35:26;;;;;;;7.47;4.65;;;17.40;80.40;;;;;;6164438;23;20015;-88
2022/09/04 05:38:39;;;;;;;9.23;4.75;;;17.30;80.50;;;;;;6164962;23;20017;-90
2022/09/04 05:41:45;;;;;;;5.22;3.72;;;17.30;80.50;;;;;;6019932;23;20015;-90
2022/09/04 05:44:16;;;;;;;5.85;3.95;;;17.30;80.50;;;;;;6010640;23;20036;-89
2022/09/04 05:47:15;;;;;;;8.25;3.67;;;17.40;80.30;;;;;;6140557;23;20505;-91
2022/09/04 05:49:53;;;;;;;5.53;3.53;;;17.30;80.60;;;;;;6164307;23;20015;-92
2022/09/04 05:52:51;;;;;;;7.55;3.67;;;17.40;80.50;;;;;;6164119;23;20079;-91
2022/09/04 05:55:44;;;;;;;7.43;4.13;;;17.30;80.20;;;;;;6164527;23;20017;-90
2022/09/04 05:58:47;;;;;;;6.30;3.63;;;17.30;80.40;;;;;;6190351;23;20333;-89
2022/09/04 06:01:55;;;;;;;7.45;4.20;;;17.30;80.40;;;;;;6163995;23;20016;-90
2022/09/04 06:04:53;;;;;;;11.77;3.88;;;17.30;80.30;;;;;;6163679;23;20001;-88
2022/09/04 06:07:30;;;;;;;5.32;3.50;;;17.40;80.10;;;;;;6162725;23;20092;-88
2022/09/04 06:10:18;;;;;;;7.65;3.70;;;17.30;80.10;;;;;;6189231;23;20012;-90
2022/09/04 06:13:06;;;;;;;7.00;3.55;;;17.40;80.00;;;;;;6163280;23;20016;-86
2022/09/04 06:15:37;;;;;;;6.72;3.53;;;17.30;80.00;;;;;;6189149;23;20345;-91
2022/09/04 06:18:32;;;;;;;9.95;4.25;;;17.40;80.00;;;;;;6163889;23;20016;-85
2022/09/04 06:21:22;;;;;;;5.30;3.92;;;17.40;79.90;;;;;;6159659;23;20075;-88
2022/09/04 06:24:21;;;;;;;12.07;3.80;;;17.40;80.30;;;;;;6187796;23;20080;-89
2022/09/04 06:27:28;;;;;;;6.78;3.97;;;17.30;80.40;;;;;;6161715;23;20012;-87
2022/09/04 06:30:09;;;;;;;11.52;3.78;;;17.50;80.40;;;;;;6106551;23;20009;-89
2022/09/04 06:32:56;;;;;;;8.05;3.75;;;17.50;79.90;;;;;;6163980;23;20035;-92
2022/09/04 06:35:45;;;;;;;5.75;3.50;;;17.50;80.00;;;;;;6189212;23;20012;-87
2022/09/04 06:38:14;;;;;;;7.40;3.60;;;17.50;80.20;;;;;;6187951;23;20001;-85
2022/09/04 06:41:11;;;;;;;7.47;3.60;;;17.60;79.80;;;;;;6188135;23;20005;-87
2022/09/04 06:44:02;;;;;;;4.65;3.38;;;17.50;80.10;;;;;;6163940;23;20056;-85
2022/09/04 06:46:55;;;;;;;5.60;3.50;;;17.50;80.00;;;;;;5155364;27;20407;-85
2022/09/04 06:49:21;;;;;;;5.18;2.97;;;17.60;80.30;;;;;;5108971;28;20434;-88
2022/09/04 06:52:11;;;;;;;4.68;3.80;;;17.60;80.20;;;;;;5103823;28;20026;-88
2022/09/04 06:54:59;;;;;;;8.68;3.60;;;17.70;79.90;;;;;;5099050;28;20053;-85
2022/09/04 06:57:37;;;;;;;8.27;3.70;;;17.80;79.50;;;;;;5130445;28;20406;-86
2022/09/04 07:00:15;;;;;;;6.40;3.30;;;17.80;79.60;;;;;;5104313;28;20019;-88
2022/09/04 07:02:55;;;;;;;5.05;3.67;;;17.80;79.80;;;;;;5118319;28;20035;-84
2022/09/04 07:05:32;;;;;;;5.80;3.45;;;17.90;79.50;;;;;;5133185;28;20059;-90
2022/09/04 07:08:19;;;;;;;4.53;3.45;;;18.00;79.50;;;;;;5115858;28;20028;-89
2022/09/04 07:11:06;;;;;;;5.32;3.10;;;18.10;79.40;;;;;;5124131;28;20447;-88
2022/09/04 07:13:59;;;;;;;4.35;2.97;;;18.20;79.20;;;;;;5101716;28;20123;-87
2022/09/04 07:16:31;;;;;;;6.22;3.15;;;18.30;78.80;;;;;;5119845;28;20051;-89
2022/09/04 07:19:11;;;;;;;6.82;2.63;;;18.40;78.60;;;;;;5118600;28;20121;-88
2022/09/04 07:21:57;;;;;;;6.00;3.13;;;18.50;78.50;;;;;;5105132;28;20896;-82
2022/09/04 07:24:48;;;;;;;4.32;2.83;;;18.60;77.90;;;;;;5103075;28;20032;-82
2022/09/04 07:27:37;;;;;;;5.28;2.90;;;18.80;77.90;;;;;;5097347;28;20543;-88
2022/09/04 07:30:05;;;;;;;5.95;2.72;;;19.00;77.20;;;;;;5114086;28;20072;-89
2022/09/04 07:32:37;;;;;;;4.75;3.08;;;19.30;76.70;;;;;;5112117;28;20087;-90
2022/09/04 07:35:36;;;;;;;9.85;3.30;;;19.70;74.90;;;;;;5114948;28;20023;-86
2022/09/04 07:38:09;;;;;;;6.15;3.25;;;19.60;75.30;;;;;;5097521;28;20028;-89
2022/09/04 07:40:46;;;;;;;5.45;2.47;;;19.70;75.60;;;;;;5100161;28;20043;-86
2022/09/04 07:43:23;;;;;;;4.47;2.40;;;19.90;75.30;;;;;;5118392;28;20448;-89
2022/09/04 07:46:17;;;;;;;5.47;2.50;;;20.00;75.00;;;;;;5119698;28;20051;-88
2022/09/04 07:48:53;;;;;;;4.65;2.50;;;20.00;74.90;;;;;;5114317;28;20087;-91
2022/09/04 07:51:28;;;;;;;4.22;2.33;;;20.00;74.80;;;;;;5101527;28;20025;-88
2022/09/04 07:54:19;;;;;;;6.75;2.55;;;20.20;74.50;;;;;;5099763;28;20024;-88
2022/09/04 07:57:29;;;;;;;7.00;2.83;;;20.40;74.40;;;;;;5101162;28;20509;-87
2022/09/04 08:00:09;;;;;;;4.85;2.35;;;20.60;73.70;;;;;;5047269;28;20195;-86
2022/09/04 08:03:04;;;;;;;4.65;2.60;;;20.90;73.20;;;;;;5104362;28;20042;-84
2022/09/04 08:05:48;;;;;;;6.57;2.50;;;21.40;71.60;;;;;;5083503;28;20062;-85
2022/09/04 08:08:16;;;;;;;6.80;2.92;;;21.80;70.70;;;;;;5104886;28;20079;-84
2022/09/04 08:10:51;;;;;;;5.30;2.25;;;22.10;69.30;;;;;;5089349;28;20031;-82
2022/09/04 08:14:08;;;;;;;3.42;2.15;;;22.60;68.40;;;;;;5113535;28;20444;-84
2022/09/04 08:16:55;;;;;;;7.97;2.20;;;23.20;66.90;;;;;;4986836;28;20652;-81
2022/09/04 08:19:50;;;;;;;4.93;2.67;;;23.80;65.00;;;;;;5091823;28;20047;-84
2022/09/04 08:22:48;;;;;;;7.95;2.40;;;23.90;64.10;;;;;;5060930;28;20043;-82
2022/09/04 08:25:52;;;;;;;5.00;2.08;;;23.40;63.60;;;;;;5055249;28;20065;-83
2022/09/04 08:28:55;;;;;;;3.78;1.70;;;23.40;65.30;;;;;;5043166;28;20047;-82
2022/09/04 08:31:46;;;;;;;3.55;1.90;;;23.10;65.60;;;;;;5117992;28;20019;-83
2022/09/04 08:34:30;;;;;;;6.43;2.30;;;22.90;67.00;;;;;;5117280;28;20042;-83
2022/09/04 08:37:24;;;;;;;3.30;1.90;;;22.80;66.70;;;;;;5110268;28;20565;-82
2022/09/04 08:40:18;;;;;;;4.75;1.92;;;22.80;67.10;;;;;;5113804;28;20061;-83
2022/09/04 08:42:56;;;;;;;6.45;2.10;;;22.70;66.80;;;;;;5079726;28;20028;-84
2022/09/04 08:45:49;;;;;;;7.10;2.75;;;22.60;67.00;;;;;;5079411;28;20109;-83
2022/09/04 08:48:17;;;;;;;4.38;2.03;;;22.50;66.70;;;;;;5096881;28;20026;-83
2022/09/04 08:51:33;;;;;;;4.82;1.77;;;22.40;67.30;;;;;;5110076;28;20024;-83
2022/09/04 08:54:32;;;;;;;3.88;2.17;;;22.30;67.60;;;;;;5008065;28;20161;-82
2022/09/04 08:57:30;;;;;;;3.22;2.10;;;22.30;68.30;;;;;;5096978;28;20100;-83
2022/09/04 09:00:14;;;;;;;6.07;1.42;;;22.50;67.10;;;;;;5075032;28;20063;-83
2022/09/04 09:02:59;;;;;;;6.90;1.80;;;22.60;66.90;;;;;;5097023;28;20053;-83
2022/09/04 09:05:46;;;;;;;5.20;2.17;;;22.80;66.90;;;;;;5078384;28;20054;-83
2022/09/04 09:08:29;;;;;;;5.50;1.65;;;22.90;65.70;;;;;;5096050;28;20032;-83
2022/09/04 09:11:20;;;;;;;5.85;1.45;;;22.90;65.20;;;;;;5081976;28;20016;-83
2022/09/04 09:14:00;;;;;;;5.20;1.50;;;22.80;65.80;;;;;;5099099;28;20039;-83
2022/09/04 09:16:42;;;;;;;4.25;1.40;;;22.90;65.80;;;;;;5115590;28;20048;-83
2022/09/04 09:19:36;;;;;;;4.85;1.73;;;23.00;64.60;;;;;;5098876;28;20036;-82
2022/09/04 09:22:39;;;;;;;6.82;2.30;;;23.10;64.50;;;;;;5090711;28;20030;-83
2022/09/04 09:25:21;;;;;;;6.30;2.58;;;23.20;64.50;;;;;;5108216;28;20078;-82
2022/09/04 09:28:11;;;;;;;3.17;1.50;;;23.20;63.70;;;;;;5078522;28;20024;-84
2022/09/04 09:30:57;;;;;;;3.47;1.45;;;23.20;63.50;;;;;;5078645;28;20495;-82
2022/09/04 09:34:01;;;;;;;5.03;1.52;;;23.30;63.90;;;;;;5096472;28;20093;-82
2022/09/04 09:36:51;;;;;;;6.35;2.00;;;23.50;63.20;;;;;;5098801;28;20437;-83
2022/09/04 09:39:36;;;;;;;6.15;2.03;;;23.60;62.20;;;;;;5100254;28;20026;-84
2022/09/04 09:42:22;;;;;;;5.82;1.95;;;23.80;60.60;;;;;;5096626;28;20032;-83
2022/09/04 09:45:13;;;;;;;5.65;1.58;;;23.90;61.10;;;;;;5083541;28;20051;-84
2022/09/04 09:48:04;;;;;;;4.70;1.67;;;23.90;60.50;;;;;;5104275;28;20027;-83
2022/09/04 09:51:07;;;;;;;8.27;1.83;;;23.80;60.30;;;;;;5106241;28;20034;-83
2022/09/04 09:53:48;;;;;;;3.90;1.50;;;23.90;60.60;;;;;;5089015;28;20027;-83
2022/09/04 09:56:41;;;;;;;2.70;1.00;;;24.00;61.10;;;;;;5101543;28;20070;-83
2022/09/04 09:59:38;;;;;;;5.53;1.50;;;24.30;60.60;;;;;;5096118;28;20103;-84
2022/09/04 10:02:18;;;;;;;3.88;1.48;;;24.90;59.00;;;;;;5079990;28;20028;-84
2022/09/04 10:04:53;;;;;;;6.25;1.40;;;26.60;55.50;;;;;;5104271;28;20043;-83
2022/09/04 10:07:43;;;;;;;4.85;1.23;;;27.80;50.60;;;;;;5104799;28;20023;-84
2022/09/04 10:10:47;;;;;;;4.10;1.33;;;28.30;47.50;;;;;;5085205;28;20047;-84
2022/09/04 10:13:50;;;;;;;5.25;1.40;;;28.50;46.40;;;;;;5106610;28;20099;-88
2022/09/04 10:16:37;;;;;;;3.58;1.38;;;28.90;46.00;;;;;;5090530;28;20034;-88
2022/09/04 10:19:32;;;;;;;4.70;2.13;;;29.10;45.10;;;;;;5101182;28;20502;-84
2022/09/04 10:22:00;;;;;;;3.50;1.00;;;28.60;47.00;;;;;;5104219;28;20114;-80
2022/09/04 10:25:16;;;;;;;5.40;1.40;;;27.90;46.50;;;;;;5115496;28;20020;-86
2022/09/04 10:28:21;;;;;;;4.40;1.65;;;27.20;47.90;;;;;;5101635;28;20028;-86
2022/09/04 10:31:11;;;;;;;6.50;1.48;;;26.60;48.80;;;;;;5101252;28;20027;-84
2022/09/04 10:33:46;;;;;;;4.70;1.88;;;26.30;49.00;;;;;;5091695;28;20127;-80
2022/09/04 10:36:45;;;;;;;3.90;1.55;;;25.90;49.60;;;;;;5104325;28;20039;-86
2022/09/04 10:43:08;;;;;;;3.67;1.30;;;25.90;51.10;;;;;;5104352;28;20402;-89
2022/09/04 10:46:17;;;;;;;5.80;1.50;;;25.80;50.10;;;;;;5081287;28;20506;-83
2022/09/04 10:48:43;;;;;;;6.93;1.30;;;25.60;50.70;;;;;;5099833;28;20057;-82
2022/09/04 10:51:33;;;;;;;3.53;1.58;;;25.60;51.10;;;;;;5116475;28;20024;-82
2022/09/04 10:54:24;;;;;;;6.00;1.75;;;25.70;51.70;;;;;;5112014;28;20067;-81
2022/09/04 10:57:28;;;;;;;2.90;1.27;;;25.70;52.70;;;;;;5099066;28;20020;-83
2022/09/04 11:00:27;;;;;;;5.65;1.67;;;25.60;50.70;;;;;;5086483;28;20021;-83
2022/09/04 11:03:32;;;;;;;2.80;1.33;;;25.80;52.00;;;;;;5103381;28;20529;-87
2022/09/04 11:06:17;;;;;;;3.22;1.48;;;25.80;50.40;;;;;;5088256;28;20517;-83
2022/09/04 11:09:17;;;;;;;4.13;1.52;;;25.70;50.80;;;;;;5106327;28;20031;-82
2022/09/04 11:11:54;;;;;;;3.33;1.80;;;25.90;51.60;;;;;;5103732;28;20031;-84
2022/09/04 11:14:51;;;;;;;7.50;2.70;;;26.00;50.70;;;;;;5087895;28;20118;-85
2022/09/04 11:17:48;;;;;;;5.18;1.60;;;26.10;51.20;;;;;;5100123;28;20027;-84
2022/09/04 11:20:44;;;;;;;4.85;1.67;;;26.00;51.30;;;;;;5108003;28;20039;-82
2022/09/04 11:23:28;;;;;;;6.22;4.03;;;26.20;52.10;;;;;;5111084;28;20021;-82
2022/09/04 11:26:04;;;;;;;4.97;1.63;;;26.40;49.90;;;;;;5079758;28;20036;-83
2022/09/04 11:29:11;;;;;;;3.70;1.23;;;26.40;49.40;;;;;;5091460;28;20051;-90
2022/09/04 11:31:47;;;;;;;8.88;2.08;;;26.40;48.00;;;;;;5083067;28;20483;-84
2022/09/04 11:34:12;;;;;;;2.17;1.20;;;26.40;49.20;;;;;;5092565;28;20087;-84
2022/09/04 11:37:00;;;;;;;3.90;1.10;;;26.50;49.40;;;;;;5104621;28;20462;-92
2022/09/04 11:39:44;;;;;;;4.50;1.50;;;26.40;47.60;;;;;;5115311;28;20544;-87
2022/09/04 11:42:45;;;;;;;4.82;1.23;;;26.30;49.20;;;;;;5103918;28;20036;-85
2022/09/04 11:45:20;;;;;;;4.82;1.60;;;26.50;48.60;;;;;;5065045;28;20044;-82
2022/09/04 11:48:25;;;;;;;2.17;1.10;;;26.70;48.70;;;;;;5118394;28;20130;-84
2022/09/04 11:51:09;;;;;;;4.22;1.00;;;26.60;46.90;;;;;;5011286;28;20044;-83
2022/09/04 11:54:12;;;;;;;3.95;1.30;;;26.80;47.80;;;;;;5100793;28;20692;-80
2022/09/04 11:56:40;;;;;;;4.57;1.20;;;26.50;48.10;;;;;;5091379;28;20032;-87
2022/09/04 11:59:09;;;;;;;2.50;1.10;;;26.60;49.40;;;;;;5083627;28;20032;-85
2022/09/04 12:02:02;;;;;;;2.53;1.00;;;26.80;48.60;;;;;;5106199;28;20032;-91
2022/09/04 12:04:36;;;;;;;2.75;1.20;;;26.50;48.10;;;;;;5090878;28;20722;-83
2022/09/04 12:07:36;;;;;;;4.35;1.10;;;26.30;48.30;;;;;;5104029;28;20046;-85
2022/09/04 12:10:22;;;;;;;2.70;1.10;;;26.30;47.50;;;;;;5094688;28;20027;-86
2022/09/04 12:13:03;;;;;;;3.53;1.48;;;26.60;47.60;;;;;;5095494;28;20410;-87
2022/09/04 12:15:53;;;;;;;3.47;1.20;;;27.00;46.00;;;;;;5095310;28;20028;-86
2022/09/04 12:18:40;;;;;;;3.30;1.25;;;27.40;46.00;;;;;;5097499;28;20031;-86
2022/09/04 12:21:46;;;;;;;3.75;1.17;;;27.30;45.20;;;;;;5095148;28;20483;-87
2022/09/04 12:24:40;;;;;;;3.22;1.17;;;27.20;44.90;;;;;;5092928;28;20015;-86
2022/09/04 12:27:34;;;;;;;4.40;1.30;;;27.20;45.40;;;;;;5095031;28;20080;-86
2022/09/04 12:30:06;;;;;;;3.35;1.17;;;27.10;44.60;;;;;;5092094;28;20493;-85
2022/09/04 12:33:10;;;;;;;2.97;1.33;;;27.10;47.00;;;;;;5098039;28;20033;-85
2022/09/04 12:35:55;;;;;;;4.07;1.20;;;27.10;46.10;;;;;;5082135;28;20032;-86
2022/09/04 12:38:48;;;;;;;4.53;1.48;;;26.80;46.10;;;;;;5096556;28;20020;-86
2022/09/04 12:41:18;;;;;;;3.63;1.00;;;26.90;46.60;;;;;;5097629;28;20031;-86
2022/09/04 12:44:07;;;;;;;4.30;1.50;;;27.10;45.90;;;;;;5115734;28;20027;-87
2022/09/04 12:46:34;;;;;;;2.60;1.30;;;27.30;45.90;;;;;;5100104;28;20043;-87
2022/09/04 12:49:02;;;;;;;2.53;1.02;;;27.40;46.60;;;;;;5099350;28;20495;-87
2022/09/04 12:51:59;;;;;;;4.18;1.20;;;27.60;45.90;;;;;;5113889;28;20479;-87
2022/09/04 12:54:40;;;;;;;3.05;1.10;;;27.90;44.80;;;;;;5074198;28;20051;-88
2022/09/04 12:57:32;;;;;;;3.25;1.20;;;28.20;45.50;;;;;;5088889;28;20024;-86
2022/09/04 13:00:14;;;;;;;3.05;1.45;;;28.30;44.80;;;;;;5086051;28;20031;-88
2022/09/04 13:03:17;;;;;;;2.70;1.25;;;28.30;44.30;;;;;;5107506;28;20089;-86
2022/09/04 13:06:02;;;;;;;3.78;1.42;;;27.80;44.40;;;;;;5089068;28;20027;-89
2022/09/04 13:08:46;;;;;;;3.55;1.42;;;27.00;45.40;;;;;;5087778;28;20023;-88
2022/09/04 13:11:17;;;;;;;5.13;1.48;;;26.60;47.00;;;;;;5094405;28;20028;-89
2022/09/04 13:14:24;;;;;;;4.07;1.27;;;26.40;47.90;;;;;;5092815;28;20130;-89
2022/09/04 13:17:15;;;;;;;5.78;1.27;;;26.30;48.40;;;;;;5056065;28;20035;-89
2022/09/04 13:20:17;;;;;;;4.63;1.17;;;26.40;48.00;;;;;;5091480;28;20023;-87
2022/09/04 13:23:01;;;;;;;2.63;1.48;;;26.90;48.50;;;;;;5091640;28;20077;-88
2022/09/04 13:25:51;;;;;;;2.58;1.23;;;27.10;46.20;;;;;;5090458;28;20019;-88
2022/09/04 13:28:54;;;;;;;3.63;1.60;;;27.50;46.50;;;;;;5090349;28;20033;-87
2022/09/04 13:31:19;;;;;;;8.60;2.60;;;27.80;46.70;;;;;;5107880;28;20042;-89
2022/09/04 13:34:24;;;;;;;4.00;1.85;;;27.30;46.10;;;;;;5089654;28;20048;-89
2022/09/04 13:37:12;;;;;;;4.00;1.60;;;26.90;47.50;;;;;;5090625;28;20031;-87
2022/09/04 13:40:08;;;;;;;5.00;1.60;;;26.60;48.90;;;;;;5101445;28;20031;-88
2022/09/04 13:43:11;;;;;;;2.80;1.33;;;26.50;48.80;;;;;;5088431;28;20758;-87
2022/09/04 13:45:45;;;;;;;4.03;1.40;;;26.70;49.90;;;;;;5107196;28;20047;-88
2022/09/04 13:48:31;;;;;;;3.55;1.65;;;26.70;48.10;;;;;;5106581;28;20016;-87
2022/09/04 13:51:06;;;;;;;4.30;1.40;;;26.90;48.10;;;;;;5078756;28;20019;-88
2022/09/04 13:53:41;;;;;;;2.88;1.73;;;27.20;48.20;;;;;;5095498;28;20589;-84
2022/09/04 13:56:14;;;;;;;3.55;1.50;;;27.50;46.60;;;;;;5104789;28;20047;-85
2022/09/04 13:58:50;;;;;;;4.00;1.20;;;27.80;46.90;;;;;;5076062;28;20040;-86
2022/09/04 14:01:22;;;;;;;1.92;1.30;;;27.80;46.00;;;;;;5102838;28;20031;-86
2022/09/04 14:03:52;;;;;;;2.95;1.42;;;27.80;46.00;;;;;;5082366;28;20478;-87
2022/09/04 14:06:23;;;;;;;3.55;1.60;;;27.80;47.50;;;;;;5082044;28;20032;-86
2022/09/04 14:08:52;;;;;;;5.30;1.73;;;27.90;46.40;;;;;;5090775;28;20050;-86
2022/09/04 14:11:43;;;;;;;3.07;1.20;;;27.90;45.70;;;;;;5091655;28;20114;-86
2022/09/04 14:14:12;;;;;;;3.63;1.63;;;27.90;46.00;;;;;;5082005;28;20020;-85
2022/09/04 14:16:40;;;;;;;2.92;1.30;;;28.00;46.20;;;;;;5099430;28;20031;-84
2022/09/04 14:19:34;;;;;;;4.13;1.60;;;28.00;46.30;;;;;;5093775;28;20410;-84
2022/09/04 14:22:09;;;;;;;5.85;1.70;;;27.70;45.90;;;;;;5106081;28;20024;-85
2022/09/04 14:25:05;;;;;;;3.70;1.45;;;27.40;46.10;;;;;;5077789;28;20032;-85
2022/09/04 14:27:54;;;;;;;5.28;1.92;;;27.30;46.50;;;;;;5111484;28;20020;-84
2022/09/04 14:30:21;;;;;;;5.18;1.40;;;27.30;47.10;;;;;;5085890;28;20031;-84
2022/09/04 14:32:56;;;;;;;4.85;1.92;;;27.50;47.10;;;;;;5089250;28;20110;-85
2022/09/04 14:35:57;;;;;;;4.88;1.80;;;27.80;46.20;;;;;;5097309;28;20028;-84